AAL1875 KCLT-KBNA
Flight info
| Callsign | AAL1875 |
|---|---|
| Flight time | 1h 2m |
| Altitude | 28000 |
| Route | BOBZY5 BOBZY BRAYN REWET EDDDY SWFFT3 |
| Aircraft | B738/M-SDE2E3FGHIRWXY/LB1 |
Departure
| Time | 2026-05-08 00:42 |
|---|---|
| Airport | Charlotte Douglas International Airport (KCLT) |
Arrival
| Time | 2026-05-08 01:45 |
|---|---|
| Airport | Nashville International Airport (KBNA) |
| Time | Latitude | Longitude | Altitude | Speed | Heading |
|---|---|---|---|---|---|
| 2026-05-08 00:01 | 35.21798 | -80.94279 | 703 ft | 0 kts | 70° |
| 2026-05-08 00:30 | 35.21798 | -80.94281 | 740 ft | 1 kts | 70° |
| 2026-05-08 00:30 | 35.21792 | -80.94299 | 730 ft | 3 kts | 66° |
| 2026-05-08 00:31 | 35.21783 | -80.94321 | 730 ft | 3 kts | 68° |
| 2026-05-08 00:31 | 35.21780 | -80.94341 | 731 ft | 3 kts | 114° |
| 2026-05-08 00:31 | 35.21791 | -80.94356 | 728 ft | 3 kts | 160° |
| 2026-05-08 00:31 | 35.21808 | -80.94361 | 729 ft | 2 kts | 175° |
| 2026-05-08 00:32 | 35.21811 | -80.94362 | 730 ft | 0 kts | 176° |
| 2026-05-08 00:35 | 35.21801 | -80.94361 | 729 ft | 5 kts | 176° |
| 2026-05-08 00:35 | 35.21742 | -80.94377 | 731 ft | 12 kts | 187° |
| 2026-05-08 00:35 | 35.21676 | -80.94348 | 731 ft | 7 kts | 120° |
| 2026-05-08 00:36 | 35.21672 | -80.94283 | 731 ft | 9 kts | 97° |
| 2026-05-08 00:36 | 35.21641 | -80.94221 | 731 ft | 10 kts | 174° |
| 2026-05-08 00:36 | 35.21582 | -80.94260 | 731 ft | 10 kts | 215° |
| 2026-05-08 00:36 | 35.21521 | -80.94333 | 731 ft | 16 kts | 228° |
| 2026-05-08 00:37 | 35.21438 | -80.94447 | 731 ft | 18 kts | 228° |
| 2026-05-08 00:37 | 35.21356 | -80.94562 | 730 ft | 18 kts | 231° |
| 2026-05-08 00:37 | 35.21307 | -80.94696 | 731 ft | 17 kts | 253° |
| 2026-05-08 00:38 | 35.21169 | -80.94937 | 731 ft | 19 kts | 227° |
| 2026-05-08 00:38 | 35.21047 | -80.94972 | 730 ft | 19 kts | 175° |
| 2026-05-08 00:38 | 35.20907 | -80.94960 | 724 ft | 21 kts | 176° |
| 2026-05-08 00:38 | 35.20762 | -80.94947 | 731 ft | 21 kts | 176° |
| 2026-05-08 00:39 | 35.20621 | -80.94935 | 732 ft | 20 kts | 176° |
| 2026-05-08 00:39 | 35.20484 | -80.94923 | 732 ft | 19 kts | 176° |
| 2026-05-08 00:39 | 35.20351 | -80.94912 | 732 ft | 19 kts | 176° |
| 2026-05-08 00:39 | 35.20232 | -80.94902 | 732 ft | 16 kts | 176° |
| 2026-05-08 00:40 | 35.20166 | -80.94896 | 732 ft | 14 kts | 176° |
| 2026-05-08 00:40 | 35.20086 | -80.94889 | 732 ft | 9 kts | 176° |
| 2026-05-08 00:40 | 35.20031 | -80.94899 | 732 ft | 8 kts | 217° |
| 2026-05-08 00:40 | 35.20016 | -80.94954 | 732 ft | 6 kts | 265° |
| 2026-05-08 00:41 | 35.20013 | -80.95004 | 733 ft | 6 kts | 266° |
| 2026-05-08 00:41 | 35.20010 | -80.95052 | 734 ft | 6 kts | 266° |
| 2026-05-08 00:41 | 35.20030 | -80.95086 | 734 ft | 6 kts | 352° |
| 2026-05-08 00:41 | 35.20086 | -80.95090 | 735 ft | 12 kts | 356° |
| 2026-05-08 00:42 | 35.20278 | -80.95106 | 737 ft | 58 kts | 356° |
| 2026-05-08 00:42 | 35.20911 | -80.95161 | 736 ft | 122 kts | 356° |
| 2026-05-08 00:42 | 35.21927 | -80.95238 | 891 ft | 158 kts | 359° |
| 2026-05-08 00:42 | 35.23005 | -80.95349 | 1686 ft | 156 kts | 353° |
| 2026-05-08 00:43 | 35.24005 | -80.95969 | 2322 ft | 170 kts | 321° |
| 2026-05-08 00:43 | 35.24835 | -80.96954 | 3197 ft | 162 kts | 321° |
| 2026-05-08 00:43 | 35.25660 | -80.97880 | 4000 ft | 162 kts | 322° |
| 2026-05-08 00:43 | 35.26547 | -80.98824 | 4531 ft | 180 kts | 321° |
| 2026-05-08 00:44 | 35.27542 | -80.99870 | 4923 ft | 195 kts | 319° |
| 2026-05-08 00:44 | 35.28253 | -81.01305 | 5309 ft | 209 kts | 284° |
| 2026-05-08 00:44 | 35.28346 | -81.03173 | 5561 ft | 229 kts | 271° |
| 2026-05-08 00:44 | 35.28333 | -81.05176 | 6023 ft | 240 kts | 269° |
| 2026-05-08 00:45 | 35.28099 | -81.07255 | 6529 ft | 255 kts | 251° |
| 2026-05-08 00:45 | 35.27351 | -81.09250 | 7294 ft | 256 kts | 244° |
| 2026-05-08 00:45 | 35.26595 | -81.11205 | 8068 ft | 252 kts | 246° |
| 2026-05-08 00:45 | 35.25887 | -81.13177 | 8874 ft | 253 kts | 249° |
| 2026-05-08 00:46 | 35.25228 | -81.15164 | 9802 ft | 252 kts | 249° |
| 2026-05-08 00:46 | 35.24579 | -81.17179 | 10443 ft | 259 kts | 250° |
| 2026-05-08 00:46 | 35.23899 | -81.19289 | 10869 ft | 274 kts | 250° |
| 2026-05-08 00:46 | 35.23185 | -81.21516 | 11352 ft | 287 kts | 250° |
| 2026-05-08 00:47 | 35.22431 | -81.23835 | 11735 ft | 302 kts | 250° |
| 2026-05-08 00:47 | 35.21636 | -81.26265 | 12179 ft | 314 kts | 251° |
| 2026-05-08 00:47 | 35.20807 | -81.28836 | 12319 ft | 335 kts | 251° |
| 2026-05-08 00:47 | 35.19978 | -81.31572 | 12536 ft | 349 kts | 255° |
| 2026-05-08 00:48 | 35.19449 | -81.34497 | 12983 ft | 355 kts | 263° |
| 2026-05-08 00:48 | 35.19306 | -81.37509 | 13654 ft | 354 kts | 270° |
| 2026-05-08 00:48 | 35.19260 | -81.40485 | 14468 ft | 349 kts | 269° |
| 2026-05-08 00:48 | 35.19187 | -81.43460 | 15013 ft | 351 kts | 269° |
| 2026-05-08 00:49 | 35.19103 | -81.46455 | 15535 ft | 354 kts | 269° |
| 2026-05-08 00:49 | 35.19017 | -81.49470 | 16090 ft | 355 kts | 269° |
| 2026-05-08 00:49 | 35.18930 | -81.52488 | 16681 ft | 356 kts | 269° |
| 2026-05-08 00:49 | 35.18842 | -81.55518 | 17221 ft | 357 kts | 269° |
| 2026-05-08 00:50 | 35.18750 | -81.58555 | 17792 ft | 359 kts | 269° |
| 2026-05-08 00:50 | 35.18656 | -81.61606 | 18276 ft | 360 kts | 269° |
| 2026-05-08 00:50 | 35.18566 | -81.64631 | 18681 ft | 362 kts | 269° |
| 2026-05-08 00:50 | 35.18496 | -81.67709 | 19042 ft | 364 kts | 269° |
| 2026-05-08 00:51 | 35.18434 | -81.70818 | 19388 ft | 367 kts | 269° |
| 2026-05-08 00:51 | 35.18373 | -81.73936 | 19828 ft | 367 kts | 269° |
| 2026-05-08 00:51 | 35.18311 | -81.77052 | 20285 ft | 366 kts | 269° |
| 2026-05-08 00:51 | 35.18247 | -81.80167 | 20708 ft | 366 kts | 269° |
| 2026-05-08 00:52 | 35.18181 | -81.83284 | 21090 ft | 368 kts | 268° |
| 2026-05-08 00:52 | 35.18113 | -81.86416 | 21457 ft | 369 kts | 268° |
| 2026-05-08 00:52 | 35.18044 | -81.89556 | 21826 ft | 370 kts | 268° |
| 2026-05-08 00:52 | 35.17974 | -81.92707 | 22184 ft | 371 kts | 268° |
| 2026-05-08 00:53 | 35.17902 | -81.95858 | 22609 ft | 371 kts | 268° |
| 2026-05-08 00:53 | 35.17830 | -81.99005 | 22953 ft | 372 kts | 268° |
| 2026-05-08 00:53 | 35.17757 | -82.02168 | 23274 ft | 373 kts | 268° |
| 2026-05-08 00:53 | 35.17683 | -82.05341 | 23580 ft | 374 kts | 268° |
| 2026-05-08 00:54 | 35.17608 | -82.08523 | 23875 ft | 373 kts | 268° |
| 2026-05-08 00:54 | 35.17534 | -82.11679 | 24306 ft | 369 kts | 268° |
| 2026-05-08 00:54 | 35.17712 | -82.14768 | 24993 ft | 361 kts | 277° |
| 2026-05-08 00:54 | 35.18248 | -82.17710 | 25862 ft | 348 kts | 281° |
| 2026-05-08 00:55 | 35.18919 | -82.20507 | 26720 ft | 338 kts | 283° |
| 2026-05-08 00:55 | 35.19781 | -82.23156 | 27357 ft | 337 kts | 289° |
| 2026-05-08 00:55 | 35.20843 | -82.25723 | 27714 ft | 340 kts | 290° |
| 2026-05-08 00:55 | 35.21966 | -82.28292 | 27914 ft | 345 kts | 291° |
| 2026-05-08 00:56 | 35.23102 | -82.30864 | 27920 ft | 351 kts | 291° |
| 2026-05-08 00:56 | 35.24265 | -82.33506 | 27914 ft | 354 kts | 291° |
| 2026-05-08 00:56 | 35.25430 | -82.36160 | 27924 ft | 354 kts | 291° |
| 2026-05-08 00:56 | 35.26590 | -82.38806 | 27991 ft | 352 kts | 291° |
| 2026-05-08 00:57 | 35.27735 | -82.41440 | 27958 ft | 350 kts | 291° |
| 2026-05-08 00:57 | 35.28882 | -82.44064 | 27945 ft | 349 kts | 290° |
| 2026-05-08 00:57 | 35.30019 | -82.46680 | 27941 ft | 348 kts | 290° |
| 2026-05-08 00:57 | 35.31143 | -82.49275 | 27926 ft | 347 kts | 290° |
| 2026-05-08 00:58 | 35.32263 | -82.51873 | 28008 ft | 344 kts | 290° |
| 2026-05-08 00:58 | 35.33386 | -82.54463 | 27999 ft | 343 kts | 290° |
| 2026-05-08 00:58 | 35.34469 | -82.57062 | 28014 ft | 343 kts | 290° |
| 2026-05-08 00:58 | 35.35587 | -82.59655 | 27987 ft | 345 kts | 290° |
| 2026-05-08 00:59 | 35.36715 | -82.62253 | 27975 ft | 345 kts | 290° |
| 2026-05-08 00:59 | 35.37847 | -82.64848 | 27978 ft | 347 kts | 290° |
| 2026-05-08 00:59 | 35.38961 | -82.67462 | 27935 ft | 343 kts | 287° |
| 2026-05-08 00:59 | 35.39958 | -82.70096 | 27991 ft | 344 kts | 290° |
| 2026-05-08 01:00 | 35.41075 | -82.72697 | 27993 ft | 345 kts | 291° |
| 2026-05-08 01:00 | 35.43304 | -82.77895 | 27987 ft | 347 kts | 291° |
| 2026-05-08 01:00 | 35.44469 | -82.80504 | 27990 ft | 351 kts | 291° |
| 2026-05-08 01:01 | 35.45646 | -82.83138 | 27987 ft | 353 kts | 291° |
| 2026-05-08 01:01 | 35.46810 | -82.85798 | 27990 ft | 356 kts | 290° |
| 2026-05-08 01:01 | 35.47972 | -82.88487 | 27994 ft | 357 kts | 290° |
| 2026-05-08 01:01 | 35.49131 | -82.91185 | 27989 ft | 357 kts | 290° |
| 2026-05-08 01:02 | 35.50284 | -82.93861 | 27966 ft | 351 kts | 290° |
| 2026-05-08 01:02 | 35.51414 | -82.96499 | 27978 ft | 349 kts | 290° |
| 2026-05-08 01:02 | 35.52538 | -82.99139 | 27979 ft | 350 kts | 290° |
| 2026-05-08 01:02 | 35.53663 | -83.01793 | 27998 ft | 351 kts | 290° |
| 2026-05-08 01:03 | 35.54789 | -83.04461 | 27998 ft | 353 kts | 290° |
| 2026-05-08 01:03 | 35.57070 | -83.09814 | 27994 ft | 349 kts | 288° |
| 2026-05-08 01:03 | 35.58110 | -83.12497 | 27987 ft | 349 kts | 290° |
| 2026-05-08 01:04 | 35.59274 | -83.15126 | 27921 ft | 349 kts | 290° |
| 2026-05-08 01:04 | 35.60392 | -83.17751 | 27976 ft | 347 kts | 291° |
| 2026-05-08 01:04 | 35.61579 | -83.20335 | 28029 ft | 347 kts | 291° |
| 2026-05-08 01:04 | 35.62708 | -83.22949 | 27962 ft | 343 kts | 289° |
| 2026-05-08 01:05 | 35.63819 | -83.25531 | 27971 ft | 342 kts | 290° |
| 2026-05-08 01:05 | 35.64894 | -83.28132 | 27999 ft | 342 kts | 289° |
| 2026-05-08 01:05 | 35.65977 | -83.30734 | 28018 ft | 343 kts | 290° |
| 2026-05-08 01:05 | 35.67064 | -83.33352 | 27974 ft | 343 kts | 290° |
| 2026-05-08 01:06 | 35.68142 | -83.35932 | 28032 ft | 345 kts | 290° |
| 2026-05-08 01:06 | 35.69243 | -83.38582 | 28000 ft | 350 kts | 290° |
| 2026-05-08 01:06 | 35.70334 | -83.41251 | 28023 ft | 349 kts | 289° |
| 2026-05-08 01:07 | 35.72062 | -83.46763 | 28020 ft | 343 kts | 279° |
| 2026-05-08 01:07 | 35.72826 | -83.52549 | 28016 ft | 343 kts | 271° |
| 2026-05-08 01:08 | 35.72775 | -83.58422 | 28034 ft | 344 kts | 268° |
| 2026-05-08 01:08 | 35.72659 | -83.64329 | 28025 ft | 346 kts | 269° |
| 2026-05-08 01:09 | 35.72511 | -83.70226 | 28022 ft | 346 kts | 268° |
| 2026-05-08 01:09 | 35.72371 | -83.76134 | 28012 ft | 345 kts | 268° |
| 2026-05-08 01:10 | 35.72245 | -83.82035 | 28014 ft | 344 kts | 269° |
| 2026-05-08 01:10 | 35.72119 | -83.87926 | 28010 ft | 344 kts | 269° |
| 2026-05-08 01:11 | 35.71988 | -83.93780 | 28014 ft | 341 kts | 269° |
| 2026-05-08 01:11 | 35.71855 | -83.99576 | 28014 ft | 339 kts | 269° |
| 2026-05-08 01:12 | 35.71720 | -84.05373 | 28027 ft | 338 kts | 269° |
| 2026-05-08 01:12 | 35.71583 | -84.11163 | 28009 ft | 338 kts | 269° |
| 2026-05-08 01:13 | 35.71443 | -84.16953 | 28018 ft | 339 kts | 269° |
| 2026-05-08 01:13 | 35.71299 | -84.22762 | 28007 ft | 340 kts | 269° |
| 2026-05-08 01:14 | 35.71152 | -84.28571 | 28013 ft | 341 kts | 269° |
| 2026-05-08 01:14 | 35.71003 | -84.34405 | 28014 ft | 342 kts | 269° |
| 2026-05-08 01:15 | 35.70849 | -84.40256 | 28021 ft | 342 kts | 269° |
| 2026-05-08 01:15 | 35.70693 | -84.46107 | 28025 ft | 342 kts | 269° |
| 2026-05-08 01:16 | 35.70534 | -84.51956 | 28030 ft | 342 kts | 269° |
| 2026-05-08 01:16 | 35.70373 | -84.57803 | 28020 ft | 342 kts | 269° |
| 2026-05-08 01:17 | 35.70211 | -84.63552 | 27854 ft | 326 kts | 269° |
| 2026-05-08 01:17 | 35.70133 | -84.66297 | 27587 ft | 316 kts | 268° |
| 2026-05-08 01:17 | 35.70057 | -84.68969 | 27352 ft | 310 kts | 269° |
| 2026-05-08 01:17 | 35.69982 | -84.71603 | 27100 ft | 312 kts | 269° |
| 2026-05-08 01:18 | 35.69904 | -84.74284 | 26850 ft | 314 kts | 269° |
| 2026-05-08 01:18 | 35.69825 | -84.76973 | 26615 ft | 315 kts | 269° |
| 2026-05-08 01:18 | 35.69745 | -84.79675 | 26375 ft | 317 kts | 269° |
| 2026-05-08 01:18 | 35.69664 | -84.82392 | 26135 ft | 318 kts | 269° |
| 2026-05-08 01:19 | 35.69610 | -84.84188 | 25864 ft | 316 kts | 269° |
| 2026-05-08 01:19 | 35.69501 | -84.87768 | 25319 ft | 311 kts | 269° |
| 2026-05-08 01:19 | 35.69421 | -84.90408 | 24904 ft | 308 kts | 269° |
| 2026-05-08 01:19 | 35.69340 | -84.93033 | 24460 ft | 307 kts | 269° |
| 2026-05-08 01:20 | 35.69286 | -84.94766 | 24194 ft | 305 kts | 269° |
| 2026-05-08 01:20 | 35.69178 | -84.98258 | 23604 ft | 305 kts | 269° |
| 2026-05-08 01:20 | 35.69097 | -85.00826 | 23115 ft | 304 kts | 269° |
| 2026-05-08 01:20 | 35.69014 | -85.03447 | 22663 ft | 302 kts | 269° |
| 2026-05-08 01:21 | 35.68933 | -85.05984 | 22266 ft | 300 kts | 269° |
| 2026-05-08 01:21 | 35.68851 | -85.08550 | 21825 ft | 300 kts | 269° |
| 2026-05-08 01:21 | 35.68768 | -85.11115 | 21417 ft | 300 kts | 269° |
| 2026-05-08 01:21 | 35.68686 | -85.13676 | 21019 ft | 302 kts | 269° |
| 2026-05-08 01:22 | 35.68601 | -85.16296 | 20607 ft | 311 kts | 269° |
| 2026-05-08 01:22 | 35.68513 | -85.18969 | 20189 ft | 313 kts | 269° |
| 2026-05-08 01:22 | 35.68275 | -85.21603 | 19949 ft | 310 kts | 262° |
| 2026-05-08 01:22 | 35.67828 | -85.24195 | 19763 ft | 310 kts | 260° |
| 2026-05-08 01:23 | 35.67327 | -85.26792 | 19576 ft | 314 kts | 260° |
| 2026-05-08 01:23 | 35.66814 | -85.29411 | 19393 ft | 315 kts | 260° |
| 2026-05-08 01:23 | 35.66306 | -85.32029 | 19164 ft | 314 kts | 260° |
| 2026-05-08 01:23 | 35.65809 | -85.34633 | 18996 ft | 312 kts | 260° |
| 2026-05-08 01:24 | 35.65320 | -85.37224 | 18817 ft | 311 kts | 260° |
| 2026-05-08 01:24 | 35.64838 | -85.39803 | 18641 ft | 308 kts | 260° |
| 2026-05-08 01:24 | 35.64363 | -85.42353 | 18456 ft | 305 kts | 260° |
| 2026-05-08 01:24 | 35.63891 | -85.44899 | 18286 ft | 307 kts | 260° |
| 2026-05-08 01:25 | 35.63413 | -85.47481 | 18099 ft | 311 kts | 260° |
| 2026-05-08 01:25 | 35.62933 | -85.50069 | 17898 ft | 310 kts | 260° |
| 2026-05-08 01:25 | 35.62455 | -85.52640 | 17723 ft | 308 kts | 260° |
| 2026-05-08 01:25 | 35.61978 | -85.55205 | 17507 ft | 308 kts | 260° |
| 2026-05-08 01:26 | 35.61663 | -85.56899 | 17377 ft | 307 kts | 260° |
| 2026-05-08 01:26 | 35.61028 | -85.60315 | 17124 ft | 306 kts | 260° |
| 2026-05-08 01:26 | 35.60714 | -85.62001 | 17003 ft | 306 kts | 260° |
| 2026-05-08 01:26 | 35.60239 | -85.64547 | 16824 ft | 305 kts | 260° |
| 2026-05-08 01:27 | 35.59765 | -85.67088 | 16649 ft | 305 kts | 260° |
| 2026-05-08 01:27 | 35.59290 | -85.69625 | 16475 ft | 305 kts | 260° |
| 2026-05-08 01:27 | 35.58814 | -85.72168 | 16285 ft | 305 kts | 260° |
| 2026-05-08 01:27 | 35.58338 | -85.74707 | 16109 ft | 305 kts | 260° |
| 2026-05-08 01:28 | 35.57861 | -85.77246 | 15934 ft | 305 kts | 260° |
| 2026-05-08 01:28 | 35.57385 | -85.79781 | 15756 ft | 305 kts | 260° |
| 2026-05-08 01:28 | 35.56908 | -85.82322 | 15583 ft | 305 kts | 260° |
| 2026-05-08 01:28 | 35.56431 | -85.84857 | 15405 ft | 305 kts | 260° |
| 2026-05-08 01:29 | 35.55974 | -85.87402 | 15223 ft | 304 kts | 264° |
| 2026-05-08 01:29 | 35.56056 | -85.89968 | 15046 ft | 301 kts | 282° |
| 2026-05-08 01:29 | 35.56699 | -85.92432 | 14697 ft | 307 kts | 293° |
| 2026-05-08 01:29 | 35.57866 | -85.94639 | 14335 ft | 311 kts | 306° |
| 2026-05-08 01:30 | 35.59321 | -85.96615 | 13950 ft | 311 kts | 309° |
| 2026-05-08 01:30 | 35.60800 | -85.98533 | 13521 ft | 308 kts | 309° |
| 2026-05-08 01:30 | 35.62250 | -86.00422 | 13106 ft | 300 kts | 309° |
| 2026-05-08 01:30 | 35.63669 | -86.02300 | 12722 ft | 299 kts | 309° |
| 2026-05-08 01:31 | 35.65077 | -86.04180 | 12354 ft | 299 kts | 309° |
| 2026-05-08 01:31 | 35.66487 | -86.06069 | 12036 ft | 299 kts | 310° |
| 2026-05-08 01:31 | 35.68220 | -86.07556 | 12017 ft | 310 kts | 329° |
| 2026-05-08 01:31 | 35.70035 | -86.08870 | 11971 ft | 294 kts | 314° |
| 2026-05-08 01:32 | 35.71278 | -86.10731 | 11767 ft | 274 kts | 294° |
| 2026-05-08 01:32 | 35.71616 | -86.12990 | 11219 ft | 274 kts | 265° |
| 2026-05-08 01:32 | 35.71034 | -86.15293 | 10349 ft | 289 kts | 256° |
| 2026-05-08 01:32 | 35.70754 | -86.17738 | 9668 ft | 290 kts | 271° |
| 2026-05-08 01:33 | 35.70741 | -86.20173 | 9412 ft | 282 kts | 271° |
| 2026-05-08 01:33 | 35.70711 | -86.22570 | 9142 ft | 277 kts | 271° |
| 2026-05-08 01:33 | 35.70668 | -86.24898 | 8891 ft | 268 kts | 271° |
| 2026-05-08 01:33 | 35.70618 | -86.27161 | 8656 ft | 261 kts | 271° |
| 2026-05-08 01:34 | 35.70565 | -86.29396 | 8458 ft | 263 kts | 270° |
| 2026-05-08 01:34 | 35.70510 | -86.31652 | 8247 ft | 265 kts | 270° |
| 2026-05-08 01:34 | 35.70454 | -86.33931 | 8043 ft | 268 kts | 270° |
| 2026-05-08 01:34 | 35.70392 | -86.36234 | 7811 ft | 271 kts | 270° |
| 2026-05-08 01:35 | 35.70327 | -86.38560 | 7586 ft | 273 kts | 270° |
| 2026-05-08 01:35 | 35.70261 | -86.40881 | 7354 ft | 270 kts | 270° |
| 2026-05-08 01:35 | 35.70194 | -86.43181 | 7128 ft | 267 kts | 270° |
| 2026-05-08 01:35 | 35.70127 | -86.45448 | 6900 ft | 263 kts | 269° |
| 2026-05-08 01:36 | 35.70061 | -86.47683 | 6688 ft | 259 kts | 270° |
| 2026-05-08 01:36 | 35.70123 | -86.49874 | 6469 ft | 255 kts | 285° |
| 2026-05-08 01:36 | 35.70938 | -86.51750 | 6254 ft | 249 kts | 316° |
| 2026-05-08 01:36 | 35.72274 | -86.53078 | 6157 ft | 248 kts | 324° |
| 2026-05-08 01:37 | 35.73726 | -86.54335 | 6179 ft | 262 kts | 325° |
| 2026-05-08 01:37 | 35.75250 | -86.55633 | 5953 ft | 270 kts | 326° |
| 2026-05-08 01:37 | 35.76797 | -86.56943 | 5690 ft | 269 kts | 326° |
| 2026-05-08 01:37 | 35.78332 | -86.58242 | 5431 ft | 266 kts | 326° |
| 2026-05-08 01:38 | 35.79847 | -86.59525 | 5172 ft | 262 kts | 326° |
| 2026-05-08 01:38 | 35.81340 | -86.60796 | 4922 ft | 260 kts | 326° |
| 2026-05-08 01:38 | 35.82815 | -86.62054 | 4669 ft | 259 kts | 326° |
| 2026-05-08 01:38 | 35.84289 | -86.63314 | 4399 ft | 252 kts | 326° |
| 2026-05-08 01:39 | 35.85712 | -86.64534 | 4130 ft | 245 kts | 326° |
| 2026-05-08 01:39 | 35.87098 | -86.65678 | 3927 ft | 236 kts | 335° |
| 2026-05-08 01:39 | 35.88653 | -86.66216 | 3666 ft | 230 kts | 349° |
| 2026-05-08 01:39 | 35.90193 | -86.66634 | 3440 ft | 222 kts | 343° |
| 2026-05-08 01:40 | 35.91514 | -86.67537 | 3195 ft | 215 kts | 324° |
| 2026-05-08 01:40 | 35.92687 | -86.68593 | 3073 ft | 202 kts | 326° |
| 2026-05-08 01:40 | 35.93798 | -86.69577 | 3013 ft | 193 kts | 326° |
| 2026-05-08 01:40 | 35.94874 | -86.70533 | 3016 ft | 189 kts | 326° |
| 2026-05-08 01:41 | 35.95950 | -86.71448 | 2855 ft | 186 kts | 333° |
| 2026-05-08 01:41 | 35.97153 | -86.71977 | 2649 ft | 183 kts | 351° |
| 2026-05-08 01:41 | 35.98389 | -86.71789 | 2534 ft | 181 kts | 18° |
| 2026-05-08 01:41 | 35.99616 | -86.71377 | 2515 ft | 183 kts | 14° |
| 2026-05-08 01:42 | 36.00832 | -86.70950 | 2504 ft | 181 kts | 17° |
| 2026-05-08 01:42 | 36.02013 | -86.70484 | 2490 ft | 176 kts | 18° |
| 2026-05-08 01:42 | 36.03184 | -86.70013 | 2275 ft | 175 kts | 18° |
| 2026-05-08 01:42 | 36.04278 | -86.69573 | 2057 ft | 165 kts | 18° |
| 2026-05-08 01:43 | 36.05320 | -86.69154 | 1858 ft | 153 kts | 18° |
| 2026-05-08 01:43 | 36.06309 | -86.68757 | 1649 ft | 148 kts | 18° |
| 2026-05-08 01:43 | 36.07307 | -86.68356 | 1451 ft | 152 kts | 18° |
| 2026-05-08 01:43 | 36.08313 | -86.67943 | 1255 ft | 154 kts | 18° |
| 2026-05-08 01:44 | 36.09354 | -86.67543 | 1054 ft | 156 kts | 18° |
| 2026-05-08 01:44 | 36.10361 | -86.67123 | 818 ft | 151 kts | 14° |
| 2026-05-08 01:44 | 36.11332 | -86.66745 | 629 ft | 148 kts | 16° |
| 2026-05-08 01:44 | 36.12234 | -86.66384 | 572 ft | 109 kts | 18° |
| 2026-05-08 01:45 | 36.12759 | -86.66174 | 562 ft | 62 kts | 18° |
| 2026-05-08 01:45 | 36.13136 | -86.66024 | 551 ft | 34 kts | 18° |
| 2026-05-08 01:45 | 36.13269 | -86.65990 | 549 ft | 13 kts | 347° |
| 2026-05-08 01:45 | 36.13291 | -86.66054 | 550 ft | 5 kts | 284° |
| 2026-05-08 01:46 | 36.13295 | -86.66087 | 551 ft | 4 kts | 267° |
| 2026-05-08 01:46 | 36.13277 | -86.66109 | 553 ft | 4 kts | 205° |
| 2026-05-08 01:46 | 36.13235 | -86.66126 | 555 ft | 9 kts | 197° |
| 2026-05-08 01:46 | 36.13166 | -86.66153 | 556 ft | 11 kts | 198° |
| 2026-05-08 01:47 | 36.13094 | -86.66182 | 557 ft | 11 kts | 198° |
| 2026-05-08 01:47 | 36.13024 | -86.66210 | 559 ft | 10 kts | 198° |
| 2026-05-08 01:47 | 36.12957 | -86.66237 | 563 ft | 10 kts | 198° |
| 2026-05-08 01:48 | 36.12827 | -86.66289 | 560 ft | 10 kts | 198° |
| 2026-05-08 01:48 | 36.12765 | -86.66314 | 563 ft | 9 kts | 198° |
| 2026-05-08 01:48 | 36.12704 | -86.66338 | 568 ft | 9 kts | 198° |
| 2026-05-08 01:48 | 36.12645 | -86.66361 | 567 ft | 9 kts | 198° |
| 2026-05-08 01:49 | 36.12587 | -86.66384 | 568 ft | 9 kts | 198° |
| 2026-05-08 01:49 | 36.12524 | -86.66410 | 567 ft | 10 kts | 198° |
| 2026-05-08 01:49 | 36.12454 | -86.66438 | 567 ft | 11 kts | 198° |
| 2026-05-08 01:49 | 36.12385 | -86.66465 | 570 ft | 10 kts | 197° |
| 2026-05-08 01:50 | 36.12318 | -86.66492 | 573 ft | 10 kts | 198° |
| 2026-05-08 01:50 | 36.12286 | -86.66556 | 570 ft | 10 kts | 278° |
| 2026-05-08 01:50 | 36.12305 | -86.66634 | 569 ft | 9 kts | 288° |
| 2026-05-08 01:50 | 36.12324 | -86.66710 | 571 ft | 9 kts | 287° |
| 2026-05-08 01:51 | 36.12344 | -86.66785 | 571 ft | 9 kts | 288° |
| 2026-05-08 01:51 | 36.12374 | -86.66858 | 574 ft | 10 kts | 308° |
| 2026-05-08 01:51 | 36.12422 | -86.66925 | 570 ft | 10 kts | 313° |
| 2026-05-08 01:51 | 36.12484 | -86.66954 | 571 ft | 10 kts | 18° |
| 2026-05-08 01:52 | 36.12545 | -86.66913 | 571 ft | 10 kts | 31° |
| 2026-05-08 01:52 | 36.12608 | -86.66883 | 576 ft | 10 kts | 355° |
| 2026-05-08 01:52 | 36.12656 | -86.66941 | 574 ft | 10 kts | 311° |
| 2026-05-08 01:52 | 36.12700 | -86.67005 | 572 ft | 8 kts | 310° |
| 2026-05-08 01:53 | 36.12736 | -86.67048 | 570 ft | 7 kts | 336° |
| 2026-05-08 01:53 | 36.12776 | -86.67024 | 570 ft | 6 kts | 41° |
| 2026-05-08 01:53 | 36.12794 | -86.67005 | 569 ft | 1 kts | 41° |